This is the latest recevied weather packets stored in our database for station/object K1RFS. If no packets are shown the sender has not sent any weather packets the latest 1 day(s).
| Time | Temp. | Humidity | Pressure | Rain* | Wind** | Luminosity | Snow |
|---|---|---|---|---|---|---|---|
| 1778068154 | 6.11° C | 69% | 1001 hPa | 0 mm | - | 0 W/m² | - |
| 1778067851 | 5.56° C | 69% | 1001 hPa | 0 mm | - | 0 W/m² | - |
| 1778066338 | 6.11° C | 68% | 1000.8 hPa | 0 mm | - | 0 W/m² | - |
| 1778066036 | 5.56° C | 68% | 1001 hPa | 0 mm | - | 0 W/m² | - |
| 1778065733 | 5.56° C | 68% | 1000.8 hPa | 0 mm | - | 0 W/m² | - |
| 1778065430 | 5.56° C | 69% | 1000.9 hPa | 0 mm | - | 0 W/m² | - |
| 1778065127 | 5.56° C | 68% | 1000.9 hPa | 0 mm | - | 0 W/m² | - |
| 1778064521 | 5.56° C | 70% | 1000.8 hPa | 0 mm | - | 0 W/m² | - |
| 1778063916 | 5.56° C | 72% | 1000.5 hPa | 0 mm | - | 0 W/m² | - |
| 1778063613 | 5.56° C | 74% | 1000.8 hPa | 0 mm | - | 0 W/m² | - |
| 1778062401 | 5° C | 82% | 1000.2 hPa | 0 mm | - | 0 W/m² | - |
| 1778061192 | 4.44° C | 87% | 999.7 hPa | 6.6 mm | - | 0 W/m² | - |
| 1778060889 | 5° C | 88% | 999.8 hPa | 3.56 mm | - | 0 W/m² | - |
| 1778060588 | 5° C | 89% | 999.6 hPa | 0 mm | - | 0 W/m² | - |
| 1778059378 | 5° C | 91% | 999.4 hPa | 0 mm | - | 0 W/m² | - |
| 1778059075 | 5° C | 91% | 999.4 hPa | 0 mm | - | 0 W/m² | - |
| 1778058470 | 5° C | 90% | 999.2 hPa | 4.32 mm | - | 0 W/m² | - |
| 1778058167 | 5° C | 90% | 999.2 hPa | 6.1 mm | - | 0 W/m² | - |
| 1778057560 | 5° C | 88% | 998.9 hPa | 6.1 mm | - | 0 W/m² | - |
| 1778057256 | 5° C | 86% | 998.8 hPa | 8.89 mm | - | 0 W/m² | - |
| 1778056953 | 5.56° C | 83% | 998.6 hPa | 6.1 mm | - | 0 W/m² | - |
| 1778056348 | 8.89° C | 77% | 997.5 hPa | 0 mm | - | 0 W/m² | - |
| 1778056045 | 8.89° C | 78% | 997.4 hPa | 0 mm | - | 0 W/m² | - |
| 1778055740 | 8.33° C | 78% | 996.7 hPa | 0 mm | - | 0 W/m² | - |
| 1778055438 | 8.33° C | 79% | 996.6 hPa | 0 mm | - | 0 W/m² | - |
* Rain latest hour (hover to see other rain measurements)
** Current wind speed in m/s (hover to see current wind gust speed)